x

Destruction Island, Wa (desw1) Weather Station

7:00 - Thu 17th Apr 2014 All times are PDT. -7 hours from GMT.

  • Wind
    20mph, 22mph gusts
  • Aire Temp 47°f
  • Sea Pressure 1010.3mb
  • Destruction Island, Wa
  • Destruction Island, Wa

More Historic Weather Station data

Upgrade to MSW Pro to gain access to the past 30 days of data for over 8000 Wavebouys and Weather Stations around the globe.

Join Pro

Comparision Forecast

View Surf forecast
   
jue 04/17 7:00 20 22 mph 1010.3mb 47f
6:00 20 22 mph 1009.6mb 47f
5:00 25 28 mph 1008.3mb 46f
4:00 37 40 mph 1006.8mb 46f
3:00 25 33 mph 1006.7mb 49f
2:00 29 34 mph 1007.1mb 49f
1:00 28 31 mph 1007.5mb 49f
12:00 25 29 mph 1007.9mb 49f
11:00 21 22 mph 1008.6mb 49f
10:00 25 29 mph 1008.9mb 49f
9:00 14 15 mph 1009.6mb 49f
8:00 14 15 mph 1010.1mb 49f
7:00 18 21 mph 1010.2mb 50f
6:00 18 21 mph 1010.2mb 50f
5:00 20 23 mph 1010.7mb 49f
4:00 15 16 mph 1011.2mb 49f
3:00 13 15 mph 1011.8mb 49f
2:00 14 15 mph 1012.4mb 49f
1:00 11
mph
1013.2mb 50f
12:00 11
mph
1013.5mb 50f
mié 04/16 11:00 17 18 mph 1013.1mb 50f
10:00 17 20 mph 1013.6mb 50f
9:00 18 22 mph 1013.7mb 50f
8:00 16 18 mph 1013.8mb 50f
7:00 14 16 mph 1014.5mb 50f
6:00 13 15 mph 1015.1mb 50f
5:00 9 11 mph 1015.7mb 50f
4:00 10 11 mph 1016.3mb 50f
3:00 9 10 mph 1016.5mb 50f
2:00 8 9 mph 1016.7mb 50f
1:00 14 15 mph 1016.6mb 50f
12:00 20 22 mph 1016.7mb 49f
11:00 26 29 mph 1016.6mb 48f
10:00 21 24 mph 1016.5mb 48f
9:00 18 22 mph 1016.7mb 49f
8:00 17 20 mph 1016.8mb 48f
7:00 16 17 mph 1016.9mb 49f
6:00 13 16 mph 1017.3mb 49f
5:00 11 14 mph 1017.5mb 49f
4:00 15 16 mph 1017.6mb 49f
3:00 14 16 mph 1017.7mb 49f
2:00 15 16 mph 1018.2mb 49f
1:00 15 16 mph 1018.5mb 49f
12:00 11 13 mph 1018.5mb 49f
mar 04/15 11:00 9
mph
1018.8mb 49f
10:00 11 13 mph 1019mb 49f
9:00 13 14 mph 1018.9mb 49f
8:00 11 13 mph 1018.8mb 49f
7:00 20 23 mph 1018.9mb 49f
6:00 31 33 mph 1019.5mb 49f
5:00 26 28 mph 1020.5mb 48f
4:00 22 24 mph 1021.3mb 49f
3:00 21 24 mph 1022mb 48f
2:00 22 26 mph 1022.3mb 48f
1:00 23 25 mph 1022.9mb 48f
12:00 17 18 mph 1023.5mb 48f
11:00 15 16 mph 1023.5mb 48f
10:00 10 11 mph 1023.3mb 47f
9:00 8
mph
1023.1mb 46f
8:00 6 8 mph 1023mb 45f
7:00 8 9 mph 1023mb 45f
6:00 2 3 mph 1023.1mb 46f
5:00 10 11 mph 1023mb 48f
4:00 17 18 mph 1023.2mb 48f
3:00 17 18 mph 1023.2mb 48f
2:00 14 16 mph 1023.7mb 48f
1:00 9 10 mph 1023.4mb 48f
12:00 15 18 mph 1023.6mb 48f
lun 04/14 11:00 14 16 mph 1023.6mb 48f
10:00 16 17 mph 1023.4mb 49f
9:00 15 16 mph 1023mb 49f
8:00 17 20 mph 1022.8mb 49f
7:00 22 23 mph 1022.8mb 49f
6:00 23 24 mph 1022.9mb 49f
5:00 23 24 mph 1022.1mb 49f
4:00 21 23 mph 1022.2mb 49f
3:00 18 20 mph 1022.7mb 50f
2:00 23 25 mph 1022.3mb 50f
1:00 29 32 mph 1021.8mb 51f
12:00 16 18 mph 1021.5mb 51f
11:00 17 20 mph 1021.2mb 50f
10:00 6 7 mph 1021mb 51f
9:00 5 6 mph 1020.5mb 49f
8:00 5 6 mph 1020.4mb 49f
7:00 8
mph
1019.8mb 49f
6:00 9 10 mph 1019.3mb 48f
5:00 6 7 mph 1019.5mb 49f
4:00 17 18 mph 1019.1mb 50f